createdAt,value
2017-07-15T00:01:46.290Z,43.91
2017-07-15T00:04:12.163Z,43.87
2017-07-15T00:06:38.001Z,43.86
2017-07-15T00:09:03.841Z,43.91
2017-07-15T00:11:29.743Z,43.86
2017-07-15T00:13:55.544Z,43.73
2017-07-15T00:16:21.397Z,43.77
2017-07-15T00:18:47.216Z,43.85
2017-07-15T00:21:13.069Z,43.89
2017-07-15T00:23:38.894Z,43.61
2017-07-15T00:26:04.725Z,43.62
2017-07-15T00:28:30.580Z,43.59
2017-07-15T00:30:56.419Z,43.44
2017-07-15T00:33:22.262Z,43.57
2017-07-15T00:35:48.091Z,43.49
2017-07-15T00:38:13.957Z,43.48
2017-07-15T00:40:39.800Z,43.42
2017-07-15T00:43:05.655Z,43.12
2017-07-15T00:45:31.550Z,43.25
2017-07-15T00:47:57.367Z,43.17
2017-07-15T00:50:23.227Z,43.25
2017-07-15T00:52:49.064Z,43.28
2017-07-15T00:55:14.980Z,43.34
2017-07-15T00:57:40.845Z,43.12
2017-07-15T01:00:07.043Z,43.48
2017-07-15T01:02:32.897Z,43.12
2017-07-15T01:04:58.701Z,43.18
2017-07-15T01:07:24.585Z,43.34
2017-07-15T01:09:50.404Z,43.29
2017-07-15T01:12:16.247Z,43.30
2017-07-15T01:14:42.062Z,43.25
2017-07-15T01:17:07.913Z,43.07
2017-07-15T01:19:33.739Z,42.92
2017-07-15T01:21:59.585Z,43.02
2017-07-15T01:24:25.439Z,42.77
2017-07-15T01:26:51.265Z,42.83
2017-07-15T01:29:17.114Z,42.66
2017-07-15T01:31:42.937Z,42.69
2017-07-15T01:34:08.825Z,42.63
2017-07-15T01:36:34.636Z,42.70
2017-07-15T01:39:00.485Z,42.50
2017-07-15T01:41:26.377Z,42.59
2017-07-15T01:43:52.197Z,42.58
2017-07-15T01:46:18.062Z,42.48
2017-07-15T01:48:43.898Z,42.68
2017-07-15T01:51:09.747Z,42.65
2017-07-15T01:53:35.610Z,42.49
2017-07-15T01:56:01.436Z,42.69
2017-07-15T01:58:27.302Z,42.61
2017-07-15T02:00:53.163Z,42.67
2017-07-15T02:03:18.990Z,42.66
2017-07-15T02:05:45.349Z,42.60
2017-07-15T02:08:11.202Z,42.49
2017-07-15T02:10:37.042Z,42.42
2017-07-15T02:13:02.893Z,42.46
2017-07-15T02:15:28.713Z,42.33
2017-07-15T02:17:54.950Z,42.42
2017-07-15T02:20:20.769Z,42.15
2017-07-15T02:22:46.631Z,42.05
2017-07-15T02:25:12.490Z,42.29
2017-07-15T02:27:38.334Z,42.28
2017-07-15T02:30:04.179Z,42.13
2017-07-15T02:32:30.001Z,42.01
2017-07-15T02:34:55.858Z,42.03
2017-07-15T02:37:21.728Z,41.99
2017-07-15T02:39:47.617Z,41.97
2017-07-15T02:42:13.478Z,41.80
2017-07-15T02:44:39.309Z,41.94
2017-07-15T02:47:05.157Z,42.00
2017-07-15T02:49:30.991Z,41.88
2017-07-15T02:51:56.843Z,41.84
2017-07-15T02:54:22.678Z,41.98
2017-07-15T02:56:48.549Z,42.10
2017-07-15T02:59:14.428Z,42.18
2017-07-15T03:01:40.249Z,42.12
2017-07-15T03:04:06.098Z,42.24
2017-07-15T03:06:31.921Z,42.20
2017-07-15T03:08:57.778Z,42.32
2017-07-15T03:11:23.650Z,42.51
2017-07-15T03:13:49.543Z,42.41
2017-07-15T03:16:15.369Z,42.37
2017-07-15T03:18:41.233Z,42.39
2017-07-15T03:21:07.062Z,42.36
2017-07-15T03:23:32.917Z,42.30
2017-07-15T03:25:58.769Z,42.41
2017-07-15T03:28:24.584Z,42.31
2017-07-15T03:30:50.433Z,42.11
2017-07-15T03:33:16.301Z,42.37
2017-07-15T03:35:42.158Z,42.32
2017-07-15T03:38:07.986Z,42.31
2017-07-15T03:40:33.877Z,42.35
2017-07-15T03:42:59.673Z,42.33
2017-07-15T03:45:25.767Z,42.20
2017-07-15T03:47:51.601Z,42.47
2017-07-15T03:50:17.438Z,42.13
2017-07-15T03:52:43.290Z,42.04
2017-07-15T03:55:09.906Z,41.84
2017-07-15T03:57:35.740Z,41.75
2017-07-15T04:00:01.556Z,41.85
2017-07-15T04:02:27.414Z,41.73
2017-07-15T04:04:53.238Z,41.74
2017-07-15T04:07:19.096Z,41.74
2017-07-15T04:09:44.933Z,41.58
2017-07-15T04:12:10.774Z,41.86
2017-07-15T04:14:36.615Z,42.15
2017-07-15T04:17:02.481Z,42.10
2017-07-15T04:19:28.353Z,42.02
2017-07-15T04:21:54.223Z,41.93
2017-07-15T04:24:20.069Z,41.92
2017-07-15T04:26:45.900Z,41.96
2017-07-15T04:29:11.719Z,41.97
2017-07-15T04:31:44.405Z,42.02
2017-07-15T04:34:10.239Z,42.08
2017-07-15T04:36:36.080Z,42.06
2017-07-15T04:39:01.959Z,42.10
2017-07-15T04:41:27.965Z,42.17
2017-07-15T04:43:53.780Z,42.02
2017-07-15T04:46:19.611Z,41.93
2017-07-15T04:48:45.465Z,41.99
2017-07-15T04:51:11.285Z,41.79
2017-07-15T04:53:37.173Z,41.80
2017-07-15T04:56:03.061Z,41.79
2017-07-15T04:58:28.897Z,41.74
2017-07-15T05:00:54.739Z,41.77
2017-07-15T05:03:20.570Z,41.73
2017-07-15T05:05:46.441Z,41.82
2017-07-15T05:08:12.283Z,41.59
2017-07-15T05:10:38.131Z,41.65
2017-07-15T05:13:03.972Z,41.58
2017-07-15T05:15:29.961Z,41.60
2017-07-15T05:17:55.789Z,41.64
2017-07-15T05:20:21.603Z,41.63
2017-07-15T05:22:47.435Z,41.76
2017-07-15T05:25:13.235Z,41.74
2017-07-15T05:27:39.088Z,41.64
2017-07-15T05:30:04.954Z,41.52
2017-07-15T05:32:30.763Z,41.38
2017-07-15T05:34:56.625Z,41.54
2017-07-15T05:37:22.434Z,41.39
2017-07-15T05:39:48.279Z,41.17
2017-07-15T05:42:14.162Z,41.07
2017-07-15T05:44:40.032Z,41.24
2017-07-15T05:47:05.882Z,41.05
2017-07-15T05:49:31.716Z,40.83
2017-07-15T05:51:57.556Z,40.78
2017-07-15T05:54:23.375Z,40.82
2017-07-15T05:56:49.229Z,40.76
2017-07-15T05:59:15.157Z,40.63
2017-07-15T06:01:41.015Z,40.66
2017-07-15T06:04:06.821Z,40.69
2017-07-15T06:06:32.653Z,40.82
2017-07-15T06:08:58.519Z,40.89
2017-07-15T06:11:24.330Z,40.68
2017-07-15T06:13:50.181Z,40.46
2017-07-15T06:16:16.042Z,40.60
2017-07-15T06:18:41.858Z,40.50
2017-07-15T06:21:07.724Z,40.41
2017-07-15T06:23:33.569Z,40.52
2017-07-15T06:25:59.403Z,40.30
2017-07-15T06:28:25.220Z,40.44
2017-07-15T06:30:51.088Z,40.30
2017-07-15T06:33:16.885Z,40.34
2017-07-15T06:35:42.751Z,40.26
2017-07-15T06:38:08.574Z,40.27
2017-07-15T06:40:34.732Z,40.70
2017-07-15T06:43:00.654Z,40.68
2017-07-15T06:45:26.482Z,40.33
2017-07-15T06:47:52.366Z,40.42
2017-07-15T06:50:18.190Z,40.44
2017-07-15T06:52:44.050Z,40.54
2017-07-15T06:55:09.872Z,40.49
2017-07-15T06:57:35.717Z,40.54
2017-07-15T07:00:01.569Z,40.26
2017-07-15T07:02:27.442Z,40.44
2017-07-15T07:04:53.338Z,40.08
2017-07-15T07:07:19.183Z,40.10
2017-07-15T07:09:45.012Z,39.87
2017-07-15T07:12:10.855Z,40.11
2017-07-15T07:14:36.707Z,40.00
2017-07-15T07:17:02.546Z,39.01
2017-07-15T07:19:28.378Z,38.07
2017-07-15T07:21:54.182Z,37.76
2017-07-15T07:24:20.076Z,37.52
2017-07-15T07:26:45.920Z,37.53
2017-07-15T07:29:11.739Z,37.54
2017-07-15T07:31:37.596Z,37.58
2017-07-15T07:34:03.405Z,37.54
2017-07-15T07:36:29.364Z,37.65
2017-07-15T07:38:55.234Z,37.65
2017-07-15T07:41:21.135Z,37.45
2017-07-15T07:43:47.025Z,37.27
2017-07-15T07:46:12.886Z,36.95
2017-07-15T07:48:38.739Z,37.12
2017-07-15T07:51:04.642Z,37.40
2017-07-15T07:53:30.505Z,36.95
2017-07-15T07:55:56.395Z,36.79
2017-07-15T07:58:22.407Z,37.07
2017-07-15T08:00:48.261Z,37.54
2017-07-15T08:03:14.115Z,37.75
2017-07-15T08:05:39.955Z,37.75
2017-07-15T08:08:05.813Z,37.97
2017-07-15T08:10:31.673Z,39.18
2017-07-15T08:12:57.544Z,39.93
2017-07-15T08:15:23.499Z,40.19
2017-07-15T08:17:49.404Z,40.66
2017-07-15T08:20:15.374Z,40.98
2017-07-15T08:22:41.212Z,40.81
2017-07-15T08:25:07.134Z,40.37
2017-07-15T08:27:32.976Z,40.73
2017-07-15T08:29:58.862Z,40.32
2017-07-15T08:32:24.739Z,40.38
2017-07-15T08:34:50.757Z,40.53
2017-07-15T08:37:16.748Z,39.98
2017-07-15T08:39:42.616Z,39.80
2017-07-15T08:42:08.509Z,39.43
2017-07-15T08:44:35.416Z,39.33
2017-07-15T08:47:01.331Z,39.54
2017-07-15T08:49:27.172Z,39.64
2017-07-15T08:51:53.058Z,39.38
2017-07-15T08:54:18.907Z,39.35
2017-07-15T08:56:44.795Z,38.97
2017-07-15T08:59:10.635Z,39.29
2017-07-15T09:01:36.563Z,38.99
2017-07-15T09:04:02.524Z,39.41
2017-07-15T09:06:28.530Z,39.18
2017-07-15T09:08:54.705Z,38.70
2017-07-15T09:11:20.555Z,38.98
2017-07-15T09:13:46.442Z,38.94
2017-07-15T09:16:12.269Z,38.94
2017-07-15T09:18:38.168Z,38.65
2017-07-15T09:21:04.054Z,38.79
2017-07-15T09:23:29.936Z,39.16
2017-07-15T09:25:55.782Z,39.09
2017-07-15T09:28:22.754Z,38.80
2017-07-15T09:30:48.696Z,38.27
2017-07-15T09:33:15.122Z,38.26
2017-07-15T09:35:41.001Z,38.52
2017-07-15T09:38:07.717Z,38.64
2017-07-15T09:40:33.621Z,38.80
2017-07-15T09:42:59.561Z,38.75
2017-07-15T09:45:25.448Z,38.97
2017-07-15T09:47:51.438Z,38.90
2017-07-15T09:50:17.364Z,38.76
2017-07-15T09:52:43.546Z,38.50
2017-07-15T09:55:09.431Z,38.51
2017-07-15T09:57:35.288Z,38.55
2017-07-15T10:00:01.139Z,38.53
2017-07-15T10:02:27.011Z,38.36
2017-07-15T10:04:52.864Z,38.40
2017-07-15T10:07:18.823Z,38.43
2017-07-15T10:09:44.720Z,38.21
2017-07-15T10:12:10.965Z,38.24
2017-07-15T10:14:36.861Z,38.21
2017-07-15T10:17:02.697Z,38.11
2017-07-15T10:19:28.555Z,38.11
2017-07-15T10:21:54.373Z,38.15
2017-07-15T10:24:20.559Z,38.73
2017-07-15T10:26:46.969Z,39.99
2017-07-15T10:29:12.930Z,40.54
2017-07-15T10:31:39.524Z,40.05
2017-07-15T10:34:05.379Z,39.54
2017-07-15T10:36:31.273Z,39.72
2017-07-15T10:38:57.127Z,40.17
2017-07-15T10:41:23.005Z,40.27
2017-07-15T10:43:49.125Z,39.79
2017-07-15T10:46:15.339Z,39.38
2017-07-15T10:48:41.636Z,39.71
2017-07-15T10:51:07.463Z,39.61
2017-07-15T10:53:33.316Z,38.78
2017-07-15T10:55:59.139Z,39.16
2017-07-15T10:58:25.054Z,39.05
2017-07-15T11:00:50.937Z,38.64
2017-07-15T11:03:16.846Z,37.87
2017-07-15T11:05:42.663Z,38.45
2017-07-15T11:08:08.574Z,38.93
2017-07-15T11:10:34.422Z,38.15
2017-07-15T11:13:00.332Z,37.45
2017-07-15T11:15:26.225Z,37.60
2017-07-15T11:17:52.057Z,36.95
2017-07-15T11:20:17.928Z,37.17
2017-07-15T11:22:43.821Z,37.83
2017-07-15T11:25:09.696Z,37.30
2017-07-15T11:27:35.618Z,36.83
2017-07-15T11:30:01.522Z,37.04
2017-07-15T11:32:27.434Z,36.77
2017-07-15T11:34:53.505Z,36.88
2017-07-15T11:37:19.357Z,36.78
2017-07-15T11:39:45.461Z,36.89
2017-07-15T11:42:11.432Z,36.82
2017-07-15T11:44:37.263Z,37.03
2017-07-15T11:47:03.099Z,36.51
2017-07-15T11:49:28.950Z,37.21
2017-07-15T11:51:54.780Z,37.17
2017-07-15T11:54:20.628Z,37.49
2017-07-15T11:56:46.468Z,38.07
2017-07-15T11:59:12.360Z,37.99
2017-07-15T12:01:38.223Z,37.70
2017-07-15T12:04:04.089Z,37.26
2017-07-15T12:06:29.980Z,37.06
2017-07-15T12:08:55.900Z,38.18
2017-07-15T12:11:21.842Z,38.08
2017-07-15T12:13:47.804Z,38.03
2017-07-15T12:16:13.689Z,36.15
2017-07-15T12:18:39.528Z,37.56
2017-07-15T12:21:05.476Z,36.42
2017-07-15T12:23:31.639Z,36.62
2017-07-15T12:25:57.540Z,36.93
2017-07-15T12:28:23.400Z,36.17
2017-07-15T12:30:49.297Z,36.37
2017-07-15T12:33:15.743Z,35.95
2017-07-15T12:35:41.745Z,36.29
2017-07-15T12:38:07.564Z,36.06
2017-07-15T12:40:33.455Z,36.14
2017-07-15T12:42:59.358Z,36.35
2017-07-15T12:45:25.193Z,35.92
2017-07-15T12:47:51.063Z,35.59
2017-07-15T12:50:16.938Z,35.03
2017-07-15T12:52:42.813Z,34.59
2017-07-15T12:55:08.659Z,35.10
2017-07-15T12:57:34.558Z,35.09
2017-07-15T13:00:00.413Z,35.53
2017-07-15T13:02:26.241Z,34.97
2017-07-15T13:04:52.126Z,35.12
2017-07-15T13:07:17.966Z,35.98
2017-07-15T13:09:43.804Z,35.16
2017-07-15T13:12:09.646Z,35.25
2017-07-15T13:14:35.510Z,35.28
2017-07-15T13:17:01.365Z,35.04
2017-07-15T13:19:27.218Z,35.13
2017-07-15T13:21:53.045Z,35.03
2017-07-15T13:24:18.917Z,35.19
2017-07-15T13:26:44.791Z,35.17
2017-07-15T13:29:11.335Z,35.43
2017-07-15T13:31:37.225Z,34.98
2017-07-15T13:34:03.060Z,33.77
2017-07-15T13:36:28.926Z,33.69
2017-07-15T13:38:54.782Z,33.99
2017-07-15T13:41:20.714Z,33.76
2017-07-15T13:43:46.599Z,33.52
2017-07-15T13:46:12.469Z,33.82
2017-07-15T13:48:38.298Z,34.49
2017-07-15T13:51:04.158Z,34.81
2017-07-15T13:53:30.031Z,34.87
2017-07-15T13:55:55.857Z,34.56
2017-07-15T13:58:21.715Z,34.24
2017-07-15T14:00:47.567Z,34.14
2017-07-15T14:03:13.432Z,34.54
2017-07-15T14:05:39.319Z,34.53
2017-07-15T14:08:05.216Z,34.36
2017-07-15T14:10:31.023Z,34.80
2017-07-15T14:12:56.902Z,34.48
2017-07-15T14:15:22.799Z,34.26
2017-07-15T14:17:48.701Z,34.07
2017-07-15T14:20:14.688Z,33.39
2017-07-15T14:22:40.520Z,33.71
2017-07-15T14:25:06.413Z,34.01
2017-07-15T14:27:32.250Z,35.35
2017-07-15T14:29:58.198Z,34.67
2017-07-15T14:32:24.036Z,34.42
2017-07-15T14:34:49.935Z,34.27
2017-07-15T14:37:15.792Z,34.27
2017-07-15T14:39:41.639Z,34.13
2017-07-15T14:42:07.521Z,33.80
2017-07-15T14:44:33.419Z,34.05
2017-07-15T14:46:59.294Z,34.09
2017-07-15T14:49:25.151Z,34.30
2017-07-15T14:51:51.008Z,34.83
2017-07-15T14:54:16.887Z,35.59
2017-07-15T14:56:42.736Z,35.64
2017-07-15T14:59:08.583Z,36.25
2017-07-15T15:01:34.657Z,35.57
2017-07-15T15:04:00.553Z,35.84
2017-07-15T15:06:26.417Z,36.04
2017-07-15T15:08:52.557Z,36.14
2017-07-15T15:11:18.449Z,36.09
2017-07-15T15:13:44.356Z,36.23
2017-07-15T15:16:10.225Z,36.16
2017-07-15T15:18:36.096Z,36.17
2017-07-15T15:21:01.946Z,36.15
2017-07-15T15:23:27.817Z,36.16
2017-07-15T15:25:53.687Z,36.26
2017-07-15T15:28:19.546Z,36.31
2017-07-15T15:30:45.460Z,36.37
2017-07-15T15:33:11.325Z,36.41
2017-07-15T15:35:37.173Z,36.36
2017-07-15T15:38:03.019Z,36.38
2017-07-15T15:40:28.861Z,36.38
2017-07-15T15:42:54.768Z,36.47
2017-07-15T15:45:20.624Z,36.49
2017-07-15T15:47:46.540Z,36.52
2017-07-15T15:50:12.387Z,36.64
2017-07-15T15:52:38.239Z,36.83
2017-07-15T15:55:04.085Z,36.91
2017-07-15T15:57:29.997Z,36.92
2017-07-15T15:59:55.897Z,37.07
2017-07-15T16:02:21.862Z,37.18
2017-07-15T16:04:47.760Z,37.21
2017-07-15T16:07:13.987Z,37.27
2017-07-15T16:09:39.931Z,37.35
2017-07-15T16:12:06.266Z,37.39
2017-07-15T16:14:32.157Z,37.35
2017-07-15T16:16:57.998Z,37.31
2017-07-15T16:19:23.887Z,37.28
2017-07-15T16:21:49.709Z,37.26
2017-07-15T16:24:16.469Z,37.25
2017-07-15T16:26:42.311Z,37.34
2017-07-15T16:29:08.206Z,37.33
2017-07-15T16:31:34.058Z,37.38
2017-07-15T16:33:59.879Z,37.42
2017-07-15T16:36:25.747Z,37.45
2017-07-15T16:38:51.622Z,37.47
2017-07-15T16:41:17.513Z,37.47
2017-07-15T16:43:43.375Z,37.59
2017-07-15T16:46:09.223Z,37.75
2017-07-15T16:48:35.064Z,37.58
2017-07-15T16:51:00.934Z,37.63
2017-07-15T16:53:26.791Z,37.50
2017-07-15T16:55:52.616Z,37.51
2017-07-15T16:58:18.470Z,37.47
2017-07-15T17:00:44.318Z,37.50
2017-07-15T17:03:10.214Z,37.53
2017-07-15T17:05:36.122Z,37.58
2017-07-15T17:08:02.212Z,37.60
2017-07-15T17:10:28.176Z,37.61
2017-07-15T17:12:54.101Z,37.63
2017-07-15T17:15:19.987Z,37.60
2017-07-15T17:17:45.825Z,37.53
2017-07-15T17:20:11.679Z,37.56
2017-07-15T17:22:37.522Z,37.63
2017-07-15T17:25:03.400Z,37.51
2017-07-15T17:27:29.327Z,37.52
2017-07-15T17:29:55.359Z,37.67
2017-07-15T17:32:21.207Z,37.67
2017-07-15T17:34:47.162Z,37.51
2017-07-15T17:37:13.032Z,37.52
2017-07-15T17:39:38.878Z,37.62
2017-07-15T17:42:04.755Z,37.60
2017-07-15T17:44:30.632Z,37.51
2017-07-15T17:46:56.492Z,37.43
2017-07-15T17:49:22.361Z,37.45
2017-07-15T17:51:48.215Z,37.52
2017-07-15T17:54:14.090Z,37.47
2017-07-15T17:56:39.927Z,37.58
2017-07-15T17:59:05.784Z,37.51
2017-07-15T18:01:33.430Z,37.56
2017-07-15T18:03:59.313Z,37.55
2017-07-15T18:06:25.166Z,37.48
2017-07-15T18:08:51.018Z,37.56
2017-07-15T18:11:16.854Z,37.48
2017-07-15T18:13:42.706Z,37.62
2017-07-15T18:16:08.527Z,37.59
2017-07-15T18:18:34.447Z,37.53
2017-07-15T18:21:00.263Z,37.55
2017-07-15T18:23:26.341Z,37.57
2017-07-15T18:25:52.251Z,37.58
2017-07-15T18:28:18.095Z,37.47
2017-07-15T18:30:43.981Z,37.47
2017-07-15T18:33:09.863Z,37.47
2017-07-15T18:35:35.787Z,37.55
2017-07-15T18:38:01.622Z,37.57
2017-07-15T18:40:27.493Z,37.65
2017-07-15T18:42:53.351Z,37.57
2017-07-15T18:45:19.217Z,37.53
2017-07-15T18:47:45.877Z,37.55
2017-07-15T18:50:11.858Z,37.57
2017-07-15T18:52:37.698Z,37.59
2017-07-15T18:55:03.550Z,37.61
2017-07-15T18:57:29.695Z,37.67
2017-07-15T18:59:55.538Z,37.68
2017-07-15T19:02:21.396Z,37.65
2017-07-15T19:04:47.238Z,37.74
2017-07-15T19:07:13.127Z,37.76
2017-07-15T19:09:38.980Z,37.76
2017-07-15T19:12:04.875Z,37.82
2017-07-15T19:14:30.725Z,37.87
2017-07-15T19:16:56.650Z,37.95
2017-07-15T19:19:22.507Z,37.97
2017-07-15T19:21:48.344Z,37.99
2017-07-15T19:24:14.202Z,38.02
2017-07-15T19:26:40.342Z,38.02
2017-07-15T19:29:06.216Z,38.11
2017-07-15T19:31:32.051Z,38.07
2017-07-15T19:33:58.028Z,38.10
2017-07-15T19:36:23.941Z,38.14
2017-07-15T19:38:49.773Z,38.17
2017-07-15T19:41:15.766Z,38.20
2017-07-15T19:43:41.648Z,38.24
2017-07-15T19:46:07.517Z,38.19
2017-07-15T19:48:33.845Z,38.21
2017-07-15T19:50:59.841Z,38.21
2017-07-15T19:53:25.676Z,38.29
2017-07-15T19:55:51.540Z,38.25
2017-07-15T19:58:17.393Z,38.17
2017-07-15T20:00:43.417Z,38.28
2017-07-15T20:03:09.288Z,38.27
2017-07-15T20:05:35.116Z,38.27
2017-07-15T20:08:00.981Z,38.32
2017-07-15T20:10:26.813Z,38.36
2017-07-15T20:12:52.668Z,38.39
2017-07-15T20:15:18.492Z,38.50
2017-07-15T20:17:44.836Z,38.51
2017-07-15T20:20:10.687Z,38.54
2017-07-15T20:22:36.541Z,38.49
2017-07-15T20:25:02.372Z,38.65
2017-07-15T20:27:38.293Z,38.68
2017-07-15T20:30:04.167Z,38.68
2017-07-15T20:32:30.032Z,38.86
2017-07-15T20:34:55.877Z,38.85
2017-07-15T20:37:21.789Z,38.96
2017-07-15T20:39:47.681Z,38.96
2017-07-15T20:42:13.517Z,39.07
2017-07-15T20:44:39.437Z,39.04
2017-07-15T20:47:05.287Z,39.14
2017-07-15T20:49:31.216Z,39.15
2017-07-15T20:52:16.929Z,39.17
2017-07-15T20:54:42.788Z,39.27
2017-07-15T20:57:08.617Z,39.28
2017-07-15T20:59:34.707Z,39.40
2017-07-15T21:02:00.589Z,39.37
2017-07-15T21:04:26.450Z,39.42
2017-07-15T21:06:52.290Z,39.52
2017-07-15T21:09:18.097Z,39.52
2017-07-15T21:11:43.963Z,39.45
2017-07-15T21:14:09.857Z,39.46
2017-07-15T21:16:35.760Z,39.56
2017-07-15T21:19:03.285Z,39.59
2017-07-15T21:21:29.171Z,39.75
2017-07-15T21:23:55.004Z,39.65
2017-07-15T21:26:20.859Z,39.58
2017-07-15T21:28:46.725Z,39.60
2017-07-15T21:31:20.886Z,39.79
2017-07-15T21:33:46.725Z,39.68
2017-07-15T21:36:17.496Z,39.80
2017-07-15T21:38:43.366Z,39.74
2017-07-15T21:41:09.200Z,39.94
2017-07-15T21:43:35.098Z,39.79
2017-07-15T21:46:00.929Z,39.91
2017-07-15T21:48:26.768Z,39.80
2017-07-15T21:50:52.600Z,39.97
2017-07-15T21:53:18.417Z,39.93
2017-07-15T21:55:44.268Z,39.92
2017-07-15T21:58:10.112Z,39.86
2017-07-15T22:00:35.957Z,39.85
2017-07-15T22:03:01.784Z,40.01
2017-07-15T22:05:27.643Z,39.88
2017-07-15T22:07:53.474Z,39.94
2017-07-15T22:10:19.445Z,40.00
2017-07-15T22:12:45.308Z,39.99
2017-07-15T22:15:11.209Z,40.12
2017-07-15T22:17:37.088Z,40.11
2017-07-15T22:20:02.934Z,40.15
2017-07-15T22:22:28.798Z,40.18
2017-07-15T22:24:54.674Z,40.33
2017-07-15T22:27:20.620Z,40.37
2017-07-15T22:29:46.454Z,40.71
2017-07-15T22:32:43.244Z,40.82
2017-07-15T22:35:12.561Z,40.62
2017-07-15T22:37:38.714Z,40.75
2017-07-15T22:40:04.616Z,40.79
2017-07-15T22:42:30.445Z,40.82
2017-07-15T22:44:56.313Z,40.69
2017-07-15T22:47:22.133Z,40.68
2017-07-15T22:49:47.996Z,40.83
2017-07-15T22:52:14.782Z,41.01
2017-07-15T22:54:40.677Z,41.01
2017-07-15T22:57:06.544Z,40.94
2017-07-15T22:59:32.431Z,40.99
2017-07-15T23:01:58.264Z,40.98
2017-07-15T23:04:24.100Z,41.05
2017-07-15T23:06:49.946Z,41.09
2017-07-15T23:09:15.881Z,41.04
2017-07-15T23:11:54.532Z,41.13
2017-07-15T23:14:27.068Z,41.25
2017-07-15T23:16:57.584Z,41.07
2017-07-15T23:19:23.404Z,41.10
2017-07-15T23:21:49.240Z,40.93
2017-07-15T23:24:15.093Z,40.93
2017-07-15T23:26:40.923Z,40.89
2017-07-15T23:29:07.026Z,41.06
2017-07-15T23:31:32.866Z,41.14
2017-07-15T23:33:58.700Z,40.84
2017-07-15T23:36:24.557Z,41.09
2017-07-15T23:38:50.440Z,40.91
2017-07-15T23:41:18.465Z,40.85
2017-07-15T23:43:45.079Z,40.70
2017-07-15T23:46:10.936Z,40.58
2017-07-15T23:48:36.788Z,40.61
2017-07-15T23:51:02.644Z,40.65
2017-07-15T23:53:28.465Z,40.41
2017-07-15T23:55:54.317Z,40.38
2017-07-15T23:58:20.153Z,40.44
